Andrews Air Force Base, Maryland
Current Conditions -  °F | °C
As of 1:58 PM on Friday 31 Oct 2014 (Local Time) from KADW Reporting Station
Overcast Overcast  
Wind Chill: 54°   Ceiling: 5000
Heat Index: 54°   Visibility: 10mi
Dew Point: 34°   Wind: 6mph
Humidity: 47%   Direction: 350°N
Pressure: 29.9"   Gusts: NA
Location:  38.8062°N, 76.8756°W
Report Text: KADW 311758Z AUTO 35005KT 10SM OVC050 12/01 A2990 RMK AO2 SLP133 60000 T01220011 10124 20024 57027 $
Loading
Personal Weather Stations






























Interactive Weather Map New forecast layout! Learn more

10-Day Weather Forecast

Advertisements
Track Severe Weather on mobile